Terminal Aerodrome Forecast
Issued by NWS

Home | Current Version | Previous Version | Text Only | Print | Product List | Glossary On
Versions: 1 2 3 4 5 6 7 8 9 10 11 12 13 14 15
000
FTUS44 KCRP 011700 AAA
TAFLRD
TAF AMD
KLRD 011705Z 0117/0212 25004KT P6SM OVC003
     FM011900 32010KT P6SM SCT020 BKN100
     FM020200 01014G20KT P6SM BKN100 OVC200
     FM020400 01016G24KT P6SM SCT040 BKN100=

USA.gov is the U.S. government's official web portal to all federal, state and local government web resources and services.